Time;durP1;ratioP1;P1;durP2;ratioP2;P2;SDS_P1;SDS_P2;PMS_P1;PMS_P2;Temp;Humidity;BMP_temperature;BMP_pressure;BME280_temperature;BME280_humidity;BME280_pressure;Samples;Min_cycle;Max_cycle;Signal;HPM_P1;HPM_P2
2022/02/12 00:00:16;;;;;;;23.95;12.10;;;;;;;;;;5095198;28;20095;-82
2022/02/12 00:02:42;;;;;;;37.50;21.42;;;;;;;;;;5094790;28;20024;-81
2022/02/12 00:05:09;;;;;;;65.47;36.88;;;;;;;;;;5094741;28;20020;-81
2022/02/12 00:07:35;;;;;;;58.00;33.13;;;;;;;;;;5094782;28;20030;-81
2022/02/12 00:10:02;;;;;;;60.28;31.98;;;;;;;;;;5093406;28;20464;-81
2022/02/12 00:12:28;;;;;;;49.15;26.23;;;;;;;;;;5094690;28;20095;-82
2022/02/12 00:14:57;;;;;;;38.88;21.58;;;;;;;;;;5094794;28;20107;-81
2022/02/12 00:17:23;;;;;;;33.35;20.00;;;;;;;;;;5094393;28;20396;-82
2022/02/12 00:19:49;;;;;;;26.40;16.58;;;;;;;;;;5093072;28;20024;-83
2022/02/12 00:22:16;;;;;;;26.55;14.63;;;;;;;;;;5094689;28;20392;-81
2022/02/12 00:24:42;;;;;;;19.25;11.60;;;;;;;;;;5093019;28;20031;-82
2022/02/12 00:27:08;;;;;;;26.23;13.80;;;;;;;;;;5092740;28;20031;-82
2022/02/12 00:29:35;;;;;;;31.73;18.17;;;;;;;;;;5094542;28;20016;-81
2022/02/12 00:32:01;;;;;;;31.10;16.40;;;;;;;;;;5092676;28;20471;-80
2022/02/12 00:34:27;;;;;;;27.45;15.77;;;;;;;;;;5092914;28;20020;-80
2022/02/12 00:36:53;;;;;;;26.48;14.23;;;;;;;;;;5094123;28;20395;-81
2022/02/12 00:39:20;;;;;;;25.20;13.63;;;;;;;;;;5093862;28;20043;-80
2022/02/12 00:41:46;;;;;;;27.50;15.73;;;;;;;;;;5092832;28;20048;-81
2022/02/12 00:44:12;;;;;;;33.25;17.98;;;;;;;;;;5094080;28;20214;-80
2022/02/12 00:46:39;;;;;;;34.35;19.58;;;;;;;;;;5093952;28;20052;-79
2022/02/12 00:49:05;;;;;;;33.08;17.08;;;;;;;;;;5092727;28;20392;-80
2022/02/12 00:51:31;;;;;;;23.25;12.82;;;;;;;;;;5094279;28;20110;-80
2022/02/12 00:53:58;;;;;;;18.15;10.95;;;;;;;;;;5093984;28;20020;-79
2022/02/12 00:56:24;;;;;;;15.30;9.68;;;;;;;;;;5093944;28;20024;-81
2022/02/12 00:58:51;;;;;;;21.33;12.60;;;;;;;;;;5094041;28;20032;-82
2022/02/12 01:01:18;;;;;;;24.25;13.57;;;;;;;;;;5093640;28;20043;-81
2022/02/12 01:03:44;;;;;;;17.25;9.95;;;;;;;;;;5094246;28;20024;-80
2022/02/12 01:06:10;;;;;;;39.67;16.45;;;;;;;;;;5109820;28;20103;-80
2022/02/12 01:08:36;;;;;;;28.83;13.82;;;;;;;;;;5091974;28;20031;-80
2022/02/12 01:11:04;;;;;;;24.10;13.50;;;;;;;;;;5093604;28;20024;-80
2022/02/12 01:13:30;;;;;;;24.25;13.10;;;;;;;;;;5093676;28;20429;-82
2022/02/12 01:15:56;;;;;;;22.15;11.82;;;;;;;;;;5093080;28;20048;-81
2022/02/12 01:18:22;;;;;;;18.17;12.18;;;;;;;;;;5093499;28;20024;-80
2022/02/12 01:20:49;;;;;;;22.73;11.88;;;;;;;;;;5093851;28;20042;-83
2022/02/12 01:23:15;;;;;;;28.55;15.10;;;;;;;;;;5093493;28;20032;-80
2022/02/12 01:25:41;;;;;;;33.65;16.52;;;;;;;;;;5092429;28;20048;-82
2022/02/12 01:28:07;;;;;;;34.42;17.67;;;;;;;;;;5093448;28;20024;-80
2022/02/12 01:30:34;;;;;;;33.50;18.10;;;;;;;;;;5092252;28;20032;-82
2022/02/12 01:33:00;;;;;;;34.60;17.50;;;;;;;;;;5094295;28;20017;-81
2022/02/12 01:35:26;;;;;;;28.27;15.02;;;;;;;;;;5092746;28;20028;-82
2022/02/12 01:37:52;;;;;;;28.08;15.35;;;;;;;;;;5094587;28;20369;-80
2022/02/12 01:40:24;;;;;;;20.92;11.77;;;;;;;;;;5097264;28;20024;-78
2022/02/12 01:42:51;;;;;;;22.80;12.23;;;;;;;;;;5097523;28;20495;-81
2022/02/12 01:45:17;;;;;;;21.73;12.32;;;;;;;;;;5097647;28;20398;-78
2022/02/12 01:47:44;;;;;;;20.65;11.98;;;;;;;;;;5097338;28;20081;-79
2022/02/12 01:50:10;;;;;;;20.70;11.20;;;;;;;;;;5096964;28;20020;-79
2022/02/12 01:52:37;;;;;;;21.27;10.13;;;;;;;;;;5095991;28;20038;-79
2022/02/12 01:55:04;;;;;;;18.05;9.32;;;;;;;;;;5095957;28;20071;-79
2022/02/12 01:57:31;;;;;;;15.27;8.20;;;;;;;;;;5096802;28;20107;-82
2022/02/12 01:59:57;;;;;;;20.30;9.57;;;;;;;;;;5097202;28;20073;-82
2022/02/12 02:02:24;;;;;;;19.40;9.15;;;;;;;;;;5112873;28;20027;-83
2022/02/12 02:04:51;;;;;;;16.33;8.85;;;;;;;;;;5096899;28;20016;-82
2022/02/12 02:07:17;;;;;;;13.27;8.57;;;;;;;;;;5097234;28;20069;-80
2022/02/12 02:09:44;;;;;;;15.32;9.05;;;;;;;;;;5097528;28;20134;-80
2022/02/12 02:12:10;;;;;;;19.83;10.20;;;;;;;;;;5096753;28;20139;-80
2022/02/12 02:14:39;;;;;;;22.17;10.70;;;;;;;;;;5097362;28;20020;-80
2022/02/12 02:17:07;;;;;;;16.42;11.05;;;;;;;;;;5096444;28;20076;-80
2022/02/12 02:19:33;;;;;;;24.10;13.52;;;;;;;;;;5096600;28;20096;-81
2022/02/12 02:22:00;;;;;;;18.75;10.52;;;;;;;;;;5096841;28;20020;-81
2022/02/12 02:24:27;;;;;;;19.38;10.18;;;;;;;;;;5096448;28;20500;-83
2022/02/12 02:27:11;;;;;;;26.88;13.82;;;;;;;;;;5095474;28;20035;-81
2022/02/12 02:29:40;;;;;;;16.67;9.73;;;;;;;;;;5096973;28;20028;-82
2022/02/12 02:32:07;;;;;;;21.38;10.30;;;;;;;;;;5096284;28;20085;-82
2022/02/12 02:34:33;;;;;;;15.88;9.32;;;;;;;;;;5095105;28;20503;-81
2022/02/12 02:37:00;;;;;;;16.33;10.57;;;;;;;;;;5112089;28;20098;-81
2022/02/12 02:39:26;;;;;;;15.98;8.45;;;;;;;;;;5096364;28;20024;-81
2022/02/12 02:41:52;;;;;;;17.48;9.80;;;;;;;;;;5096361;28;20078;-82
2022/02/12 02:44:18;;;;;;;16.00;9.77;;;;;;;;;;5112054;28;20020;-78
2022/02/12 02:46:45;;;;;;;17.55;10.90;;;;;;;;;;5096265;28;20464;-79
2022/02/12 02:49:11;;;;;;;19.63;11.18;;;;;;;;;;5095760;28;20463;-79
2022/02/12 02:57:07;;;;;;;22.23;13.73;;;;;;;;;;5109826;28;20174;-81
2022/02/12 02:59:33;;;;;;;25.08;14.63;;;;;;;;;;5096656;28;20038;-82
2022/02/12 03:01:59;;;;;;;22.55;13.75;;;;;;;;;;5096466;28;20046;-82
2022/02/12 03:04:25;;;;;;;22.83;14.63;;;;;;;;;;5096724;28;20024;-82
2022/02/12 03:06:51;;;;;;;23.65;14.77;;;;;;;;;;5096009;28;20028;-81
2022/02/12 03:09:18;;;;;;;24.05;14.25;;;;;;;;;;5094768;28;20035;-79
2022/02/12 03:11:45;;;;;;;23.13;14.35;;;;;;;;;;5095903;28;20077;-80
2022/02/12 03:14:11;;;;;;;23.60;14.40;;;;;;;;;;5095814;28;20062;-80
2022/02/12 03:16:38;;;;;;;24.80;15.65;;;;;;;;;;5094447;28;20055;-81
2022/02/12 03:19:04;;;;;;;24.45;14.00;;;;;;;;;;5094559;28;20028;-81
2022/02/12 03:21:30;;;;;;;23.42;13.77;;;;;;;;;;5095513;28;20055;-81
2022/02/12 03:23:57;;;;;;;21.85;13.00;;;;;;;;;;5096347;28;20095;-81
2022/02/12 03:26:23;;;;;;;23.85;13.00;;;;;;;;;;5095610;28;20434;-80
2022/02/12 03:28:49;;;;;;;23.00;14.50;;;;;;;;;;5094143;28;20030;-81
2022/02/12 03:31:15;;;;;;;25.73;14.10;;;;;;;;;;5095892;28;20028;-81
2022/02/12 03:33:42;;;;;;;28.55;15.82;;;;;;;;;;5096438;28;20472;-81
2022/02/12 03:36:08;;;;;;;21.17;12.75;;;;;;;;;;5097005;28;20377;-82
2022/02/12 03:38:35;;;;;;;29.48;15.32;;;;;;;;;;5095372;28;20047;-81
2022/02/12 03:41:03;;;;;;;24.58;14.05;;;;;;;;;;5095392;28;20028;-82
2022/02/12 03:43:30;;;;;;;21.42;12.77;;;;;;;;;;5093626;28;20035;-82
2022/02/12 03:45:57;;;;;;;25.23;14.45;;;;;;;;;;5095342;28;20028;-81
2022/02/12 03:48:24;;;;;;;25.52;13.15;;;;;;;;;;5095356;28;20024;-79
2022/02/12 03:50:52;;;;;;;21.08;13.15;;;;;;;;;;5093537;28;20052;-80
2022/02/12 03:53:18;;;;;;;25.35;15.38;;;;;;;;;;5095044;28;20512;-80
2022/02/12 03:55:45;;;;;;;25.98;13.25;;;;;;;;;;5093675;28;20026;-80
2022/02/12 03:58:12;;;;;;;24.00;13.93;;;;;;;;;;5093363;28;20028;-82
2022/02/12 04:00:39;;;;;;;24.15;14.32;;;;;;;;;;5094461;28;20047;-83
2022/02/12 04:03:05;;;;;;;22.02;13.55;;;;;;;;;;5094971;28;20453;-83
2022/02/12 04:05:31;;;;;;;24.42;14.57;;;;;;;;;;5094905;28;20040;-83
2022/02/12 04:07:58;;;;;;;21.50;14.05;;;;;;;;;;5094946;28;20479;-82
2022/02/12 04:10:25;;;;;;;25.33;13.80;;;;;;;;;;5094570;28;20024;-81
2022/02/12 04:12:52;;;;;;;23.70;14.68;;;;;;;;;;5094891;28;20468;-82
2022/02/12 04:15:18;;;;;;;27.05;15.13;;;;;;;;;;5094393;28;20107;-79
2022/02/12 04:17:44;;;;;;;27.35;16.17;;;;;;;;;;5094752;28;20032;-81
2022/02/12 04:20:12;;;;;;;26.13;16.10;;;;;;;;;;5093343;28;20024;-81
2022/02/12 04:22:39;;;;;;;32.55;17.75;;;;;;;;;;5094787;28;20028;-81
2022/02/12 04:25:07;;;;;;;29.38;17.60;;;;;;;;;;5092888;28;20020;-81
2022/02/12 04:27:33;;;;;;;29.25;17.63;;;;;;;;;;5095023;28;20138;-82
2022/02/12 04:29:59;;;;;;;30.50;19.40;;;;;;;;;;5094367;28;20384;-82
2022/02/12 04:32:26;;;;;;;32.08;18.92;;;;;;;;;;5094017;28;20039;-81
2022/02/12 04:34:53;;;;;;;32.40;18.48;;;;;;;;;;5092934;28;20115;-81
2022/02/12 04:37:20;;;;;;;30.60;20.67;;;;;;;;;;5094139;28;20089;-81
2022/02/12 04:39:46;;;;;;;30.50;18.85;;;;;;;;;;5092884;28;20031;-81
2022/02/12 04:42:13;;;;;;;31.95;18.08;;;;;;;;;;5094207;28;20059;-82
2022/02/12 04:44:43;;;;;;;34.35;20.27;;;;;;;;;;5094883;28;20020;-81
2022/02/12 04:47:09;;;;;;;31.83;19.98;;;;;;;;;;5093944;28;20094;-82
2022/02/12 04:49:35;;;;;;;38.45;19.02;;;;;;;;;;5092723;28;20027;-81
2022/02/12 04:52:02;;;;;;;30.92;20.33;;;;;;;;;;5093923;28;20567;-80
2022/02/12 04:54:28;;;;;;;31.38;19.85;;;;;;;;;;5095550;28;20461;-81
2022/02/12 04:56:54;;;;;;;35.35;20.15;;;;;;;;;;5094152;28;20064;-80
2022/02/12 04:59:20;;;;;;;32.33;20.77;;;;;;;;;;5092644;28;20028;-81
2022/02/12 05:01:48;;;;;;;35.00;21.25;;;;;;;;;;5094142;28;20043;-83
2022/02/12 05:04:14;;;;;;;34.83;22.58;;;;;;;;;;5094019;28;20020;-82
2022/02/12 05:06:40;;;;;;;34.25;19.65;;;;;;;;;;5092911;28;20051;-81
2022/02/12 05:09:06;;;;;;;31.77;19.83;;;;;;;;;;5093892;28;20035;-81
2022/02/12 05:11:32;;;;;;;32.50;19.73;;;;;;;;;;5092376;28;20020;-81
2022/02/12 05:13:59;;;;;;;32.97;18.95;;;;;;;;;;5093919;28;20028;-81
2022/02/12 05:16:25;;;;;;;30.55;20.60;;;;;;;;;;5093443;28;20106;-80
2022/02/12 05:18:51;;;;;;;32.35;20.17;;;;;;;;;;5092358;28;20022;-82
2022/02/12 05:21:17;;;;;;;31.00;19.33;;;;;;;;;;5093524;28;20070;-80
2022/02/12 05:23:44;;;;;;;29.60;18.08;;;;;;;;;;5093998;28;20017;-81
2022/02/12 05:26:11;;;;;;;29.88;19.58;;;;;;;;;;5093700;28;20048;-82
2022/02/12 05:28:38;;;;;;;33.95;19.90;;;;;;;;;;5092032;28;20074;-82
2022/02/12 05:31:04;;;;;;;27.45;18.25;;;;;;;;;;5092287;28;20032;-81
2022/02/12 05:33:30;;;;;;;33.13;18.98;;;;;;;;;;5093529;28;20463;-81
2022/02/12 05:35:56;;;;;;;31.60;18.90;;;;;;;;;;5092821;28;20024;-81
2022/02/12 05:38:22;;;;;;;32.03;18.48;;;;;;;;;;5093510;28;20028;-78
2022/02/12 05:40:49;;;;;;;27.15;17.60;;;;;;;;;;5093407;28;20020;-80
2022/02/12 05:43:15;;;;;;;24.67;18.33;;;;;;;;;;5093138;28;20028;-79
2022/02/12 05:45:41;;;;;;;30.10;18.48;;;;;;;;;;5093352;28;20024;-80
2022/02/12 05:48:08;;;;;;;28.02;17.40;;;;;;;;;;5094325;28;20028;-80
2022/02/12 05:50:34;;;;;;;31.38;19.70;;;;;;;;;;5093893;28;20149;-80
2022/02/12 05:53:00;;;;;;;32.28;21.65;;;;;;;;;;5093943;28;20028;-79
2022/02/12 05:55:27;;;;;;;24.77;15.48;;;;;;;;;;5092392;28;20020;-79
2022/02/12 05:57:57;;;;;;;25.67;16.10;;;;;;;;;;5093756;28;20048;-81
2022/02/12 06:00:24;;;;;;;25.63;15.43;;;;;;;;;;5094259;28;20021;-82
2022/02/12 06:02:50;;;;;;;24.30;15.60;;;;;;;;;;5094830;28;20051;-82
2022/02/12 06:05:16;;;;;;;23.33;14.43;;;;;;;;;;5094817;28;20030;-81
2022/02/12 06:07:42;;;;;;;19.63;13.20;;;;;;;;;;5093921;28;20020;-80
2022/02/12 06:10:08;;;;;;;25.83;15.30;;;;;;;;;;5093306;28;20468;-80
2022/02/12 06:12:35;;;;;;;20.23;14.50;;;;;;;;;;5093810;28;20032;-79
2022/02/12 06:15:01;;;;;;;22.63;13.60;;;;;;;;;;5093446;28;20028;-80
2022/02/12 06:17:27;;;;;;;21.75;13.27;;;;;;;;;;5092475;28;20051;-81
2022/02/12 06:19:54;;;;;;;18.65;12.23;;;;;;;;;;5093078;28;20027;-81
2022/02/12 06:22:21;;;;;;;20.58;11.73;;;;;;;;;;5093480;28;20028;-80
2022/02/12 06:24:47;;;;;;;15.25;9.90;;;;;;;;;;5095625;28;20024;-81
2022/02/12 06:27:13;;;;;;;16.35;10.32;;;;;;;;;;5112611;28;20107;-82
2022/02/12 06:29:39;;;;;;;15.88;10.15;;;;;;;;;;5096762;28;20376;-81
2022/02/12 06:32:05;;;;;;;18.63;10.15;;;;;;;;;;5094986;28;20070;-81
2022/02/12 06:34:31;;;;;;;19.55;9.30;;;;;;;;;;5096976;28;20020;-80
2022/02/12 06:36:58;;;;;;;19.70;10.73;;;;;;;;;;5096780;28;20111;-81
2022/02/12 06:39:24;;;;;;;19.88;10.32;;;;;;;;;;5096039;28;20024;-79
2022/02/12 06:41:50;;;;;;;15.73;9.48;;;;;;;;;;5095112;28;20029;-82
2022/02/12 06:44:16;;;;;;;15.18;8.63;;;;;;;;;;5111879;28;20024;-80
2022/02/12 06:46:43;;;;;;;15.65;9.43;;;;;;;;;;5095844;28;20024;-80
2022/02/12 06:49:09;;;;;;;13.63;7.70;;;;;;;;;;5096476;28;20028;-80
2022/02/12 06:51:36;;;;;;;11.95;6.93;;;;;;;;;;5096665;28;20054;-80
2022/02/12 06:54:03;;;;;;;12.45;7.60;;;;;;;;;;5111915;28;20020;-79
2022/02/12 06:56:29;;;;;;;15.52;7.85;;;;;;;;;;5096029;28;20035;-82
2022/02/12 06:58:55;;;;;;;14.55;8.05;;;;;;;;;;5095642;28;20024;-82
2022/02/12 07:01:26;;;;;;;10.65;6.43;;;;;;;;;;5096278;28;20028;-83
2022/02/12 07:03:55;;;;;;;16.30;6.88;;;;;;;;;;5096566;28;20020;-84
2022/02/12 07:06:23;;;;;;;15.50;7.13;;;;;;;;;;5095673;28;20388;-81
2022/02/12 07:08:50;;;;;;;11.15;7.18;;;;;;;;;;5096109;28;20012;-82
2022/02/12 07:11:16;;;;;;;13.95;6.90;;;;;;;;;;5096005;28;20020;-80
2022/02/12 07:13:42;;;;;;;17.55;8.07;;;;;;;;;;5111191;28;20028;-80
2022/02/12 07:16:08;;;;;;;14.68;9.10;;;;;;;;;;5095779;28;20044;-80
2022/02/12 07:18:34;;;;;;;13.27;6.90;;;;;;;;;;5111434;28;20410;-81
2022/02/12 07:21:01;;;;;;;13.38;7.57;;;;;;;;;;5095321;28;20024;-81
2022/02/12 07:23:27;;;;;;;14.35;6.82;;;;;;;;;;5111401;28;20028;-82
2022/02/12 07:25:53;;;;;;;13.25;7.32;;;;;;;;;;5095593;28;20051;-83
2022/02/12 07:28:19;;;;;;;15.40;7.70;;;;;;;;;;5095328;28;20085;-84
2022/02/12 07:30:46;;;;;;;12.43;7.38;;;;;;;;;;5095557;28;20040;-84
2022/02/12 07:33:12;;;;;;;16.98;7.95;;;;;;;;;;5095657;28;20032;-83
2022/02/12 07:35:38;;;;;;;12.45;7.10;;;;;;;;;;5095926;28;20409;-83
2022/02/12 07:38:04;;;;;;;13.27;6.68;;;;;;;;;;5095469;28;20392;-85
2022/02/12 07:40:30;;;;;;;16.30;6.65;;;;;;;;;;5095839;28;20031;-84
2022/02/12 07:42:57;;;;;;;13.75;7.75;;;;;;;;;;5095036;28;20068;-84
2022/02/12 07:45:24;;;;;;;19.10;8.32;;;;;;;;;;5095542;28;20104;-81
2022/02/12 07:47:50;;;;;;;13.75;7.10;;;;;;;;;;5095195;28;20353;-86
2022/02/12 07:50:17;;;;;;;14.27;7.75;;;;;;;;;;5095613;28;20137;-81
2022/02/12 07:52:44;;;;;;;13.93;7.75;;;;;;;;;;5095040;28;20035;-79
2022/02/12 07:55:11;;;;;;;20.92;8.23;;;;;;;;;;5095069;28;20036;-79
2022/02/12 07:57:39;;;;;;;19.25;7.47;;;;;;;;;;5095248;28;20032;-81
2022/02/12 08:00:07;;;;;;;12.15;6.63;;;;;;;;;;5094840;28;20028;-82
2022/02/12 08:02:33;;;;;;;12.57;6.25;;;;;;;;;;5110203;28;20107;-84
2022/02/12 08:04:59;;;;;;;13.00;6.68;;;;;;;;;;5095033;28;20020;-82
2022/02/12 08:07:28;;;;;;;18.20;8.48;;;;;;;;;;5095215;28;20055;-85
2022/02/12 08:09:55;;;;;;;18.05;9.82;;;;;;;;;;5094516;28;20051;-81
2022/02/12 08:12:22;;;;;;;14.30;8.15;;;;;;;;;;5094686;28;20095;-79
2022/02/12 08:14:49;;;;;;;16.70;8.20;;;;;;;;;;5110312;28;20028;-80
2022/02/12 08:17:16;;;;;;;10.88;5.47;;;;;;;;;;5109852;28;20126;-80
2022/02/12 08:19:43;;;;;;;20.80;7.35;;;;;;;;;;5110253;28;20070;-81
2022/02/12 08:22:10;;;;;;;13.85;6.10;;;;;;;;;;5094670;28;20073;-82
2022/02/12 08:24:37;;;;;;;12.13;6.65;;;;;;;;;;5094074;28;20020;-83
2022/02/12 08:27:04;;;;;;;10.63;5.47;;;;;;;;;;5110089;28;20433;-83
2022/02/12 08:29:31;;;;;;;9.93;5.05;;;;;;;;;;5110007;28;20468;-83
2022/02/12 08:31:57;;;;;;;12.57;6.30;;;;;;;;;;5109655;28;20028;-83
2022/02/12 08:34:24;;;;;;;14.52;5.97;;;;;;;;;;5094473;28;20476;-80
2022/02/12 08:36:50;;;;;;;15.10;7.30;;;;;;;;;;5094249;28;20461;-79
2022/02/12 08:39:17;;;;;;;10.02;5.03;;;;;;;;;;5109417;28;20035;-81
2022/02/12 08:41:43;;;;;;;13.98;6.63;;;;;;;;;;5094195;28;20493;-80
2022/02/12 08:44:09;;;;;;;11.23;6.10;;;;;;;;;;5094007;28;20078;-81
2022/02/12 08:46:36;;;;;;;8.43;4.55;;;;;;;;;;5094073;28;20034;-82
2022/02/12 08:49:02;;;;;;;9.48;5.63;;;;;;;;;;5109978;28;20417;-81
2022/02/12 08:51:28;;;;;;;10.50;5.63;;;;;;;;;;5093722;28;20557;-82
2022/02/12 08:53:55;;;;;;;11.50;4.72;;;;;;;;;;5094252;28;20445;-81
2022/02/12 08:56:23;;;;;;;10.35;5.55;;;;;;;;;;5110294;28;20036;-80
2022/02/12 08:58:50;;;;;;;10.38;5.88;;;;;;;;;;5109450;28;20031;-82
2022/02/12 09:01:16;;;;;;;12.00;6.20;;;;;;;;;;5109781;28;20104;-83
2022/02/12 09:03:43;;;;;;;15.27;6.18;;;;;;;;;;5109842;28;20469;-82
2022/02/12 09:06:09;;;;;;;14.90;8.48;;;;;;;;;;5093635;28;20041;-82
2022/02/12 09:08:35;;;;;;;12.88;6.65;;;;;;;;;;5093960;28;20024;-82
2022/02/12 09:11:01;;;;;;;13.88;5.47;;;;;;;;;;5093813;28;20030;-81
2022/02/12 09:13:29;;;;;;;21.73;7.30;;;;;;;;;;5093650;28;20380;-85
2022/02/12 09:15:55;;;;;;;14.40;6.57;;;;;;;;;;5093538;28;20042;-81
2022/02/12 09:18:21;;;;;;;8.35;4.65;;;;;;;;;;5093750;28;20039;-81
2022/02/12 09:20:48;;;;;;;16.65;6.95;;;;;;;;;;5093279;28;20034;-81
2022/02/12 09:23:14;;;;;;;10.90;6.20;;;;;;;;;;5094025;28;20081;-81
2022/02/12 09:25:40;;;;;;;13.45;6.20;;;;;;;;;;5093675;28;20479;-82
2022/02/12 09:28:06;;;;;;;13.93;6.55;;;;;;;;;;5093543;28;20028;-82
2022/02/12 09:30:33;;;;;;;18.40;8.10;;;;;;;;;;5093661;28;20492;-83
2022/02/12 09:32:59;;;;;;;15.88;8.35;;;;;;;;;;5093497;28;20028;-81
2022/02/12 09:35:25;;;;;;;12.45;5.57;;;;;;;;;;5093178;28;20024;-80
2022/02/12 09:37:52;;;;;;;12.07;7.00;;;;;;;;;;5094004;28;20480;-82
2022/02/12 09:40:18;;;;;;;10.80;5.65;;;;;;;;;;5093891;28;20020;-82
2022/02/12 09:42:49;;;;;;;9.70;5.53;;;;;;;;;;5093346;28;20145;-81
2022/02/12 09:45:15;;;;;;;11.13;4.57;;;;;;;;;;5093437;28;20012;-81
2022/02/12 09:47:46;;;;;;;18.50;9.13;;;;;;;;;;5093298;28;20024;-81
2022/02/12 09:50:12;;;;;;;15.38;6.57;;;;;;;;;;5109465;28;20484;-81
2022/02/12 09:52:45;;;;;;;18.17;6.53;;;;;;;;;;5093861;28;20024;-81
2022/02/12 09:55:11;;;;;;;18.13;7.97;;;;;;;;;;5093765;28;20472;-81
2022/02/12 09:57:38;;;;;;;10.45;5.13;;;;;;;;;;5093417;28;20090;-82
2022/02/12 10:00:08;;;;;;;7.95;4.00;;;;;;;;;;5096732;28;20024;-82
2022/02/12 10:02:34;;;;;;;10.60;5.43;;;;;;;;;;5114708;28;20115;-84
2022/02/12 10:05:20;;;;;;;12.18;6.25;;;;;;;;;;5097869;28;20024;-83
2022/02/12 10:07:47;;;;;;;11.35;5.07;;;;;;;;;;5097135;28;20085;-82
2022/02/12 10:10:14;;;;;;;12.00;4.28;;;;;;;;;;5112984;28;20020;-83
2022/02/12 10:13:15;;;;;;;15.45;6.25;;;;;;;;;;5112807;27;20404;-85
2022/02/12 10:15:43;;;;;;;9.77;5.15;;;;;;;;;;5112302;28;20106;-83
2022/02/12 10:18:10;;;;;;;10.45;5.10;;;;;;;;;;5112093;28;20495;-86
2022/02/12 10:20:37;;;;;;;11.77;5.90;;;;;;;;;;5111758;28;20036;-84
2022/02/12 10:26:04;;;;;;;13.40;6.63;;;;;;;;;;5112870;27;20521;-83
2022/02/12 10:30:26;;;;;;;13.27;5.95;;;;;;;;;;5112165;27;20516;-83
2022/02/12 10:33:39;;;;;;;11.25;5.28;;;;;;;;;;5071195;28;20387;-85
2022/02/12 10:36:06;;;;;;;10.30;5.25;;;;;;;;;;5071334;28;20473;-83
2022/02/12 10:38:33;;;;;;;17.70;7.60;;;;;;;;;;5069757;28;20115;-84
2022/02/12 10:41:06;;;;;;;10.55;6.03;;;;;;;;;;5071137;28;20070;-83
2022/02/12 10:47:13;;;;;;;7.95;3.67;;;;;;;;;;5112256;27;20385;-85
2022/02/12 10:49:40;;;;;;;11.13;6.57;;;;;;;;;;5111613;28;20052;-85
2022/02/12 10:52:06;;;;;;;13.93;6.65;;;;;;;;;;5111423;28;20028;-85
2022/02/12 10:55:37;;;;;;;11.18;5.18;;;;;;;;;;5113005;27;20377;-86
2022/02/12 10:58:08;;;;;;;12.07;5.70;;;;;;;;;;5110968;28;20031;-85
2022/02/12 11:01:38;;;;;;;17.40;7.75;;;;;;;;;;5114088;27;20469;-85
2022/02/12 11:04:06;;;;;;;17.17;8.00;;;;;;;;;;5111336;28;20069;-86
2022/02/12 11:06:54;;;;;;;10.98;6.18;;;;;;;;;;5112459;27;20400;-85
2022/02/12 11:09:20;;;;;;;12.52;6.00;;;;;;;;;;5112441;28;20584;-86
2022/02/12 11:13:54;;;;;;;12.25;7.03;;;;;;;;;;5111996;27;20548;-85
2022/02/12 11:17:16;;;;;;;11.02;6.45;;;;;;;;;;5112635;27;20384;-84
2022/02/12 11:20:24;;;;;;;11.90;5.93;;;;;;;;;;5111895;27;20420;-84
2022/02/12 11:23:10;;;;;;;7.80;3.72;;;;;;;;;;5111965;28;20503;-85
2022/02/12 11:26:20;;;;;;;10.85;5.72;;;;;;;;;;5112408;27;20492;-86
2022/02/12 11:28:47;;;;;;;16.70;8.18;;;;;;;;;;5112646;28;20051;-88
2022/02/12 11:31:19;;;;;;;9.98;5.00;;;;;;;;;;5112651;28;20028;-87
2022/02/12 11:34:04;;;;;;;8.93;5.57;;;;;;;;;;5113499;28;20076;-85
2022/02/12 11:36:31;;;;;;;17.63;8.30;;;;;;;;;;5112589;28;20028;-84
2022/02/12 11:39:16;;;;;;;10.88;6.22;;;;;;;;;;5110600;28;20027;-84
2022/02/12 11:41:44;;;;;;;13.15;6.57;;;;;;;;;;5112028;28;20020;-85
2022/02/12 11:44:51;;;;;;;9.88;5.82;;;;;;;;;;5113077;27;20446;-89
2022/02/12 11:47:17;;;;;;;11.20;5.85;;;;;;;;;;5112698;28;20024;-87
2022/02/12 11:54:45;;;;;;;20.25;9.68;;;;;;;;;;5111469;27;20385;-83
2022/02/12 11:57:11;;;;;;;13.15;7.65;;;;;;;;;;5111800;28;20441;-84
2022/02/12 11:59:37;;;;;;;12.90;6.82;;;;;;;;;;5110644;28;20055;-84
2022/02/12 12:07:56;;;;;;;12.00;6.72;;;;;;;;;;5112569;27;20505;-83
2022/02/12 12:10:23;;;;;;;16.70;6.03;;;;;;;;;;5111217;28;20076;-83
2022/02/12 12:12:49;;;;;;;13.10;7.60;;;;;;;;;;5111685;28;20475;-85
2022/02/12 12:18:43;;;;;;;13.13;6.38;;;;;;;;;;5111807;27;20843;-85
2022/02/12 12:22:30;;;;;;;11.52;4.70;;;;;;;;;;5112190;27;20442;-84
2022/02/12 12:24:59;;;;;;;14.68;7.35;;;;;;;;;;5112299;28;20023;-85
2022/02/12 12:27:25;;;;;;;12.05;7.32;;;;;;;;;;5112959;28;20028;-84
2022/02/12 12:32:09;;;;;;;11.82;6.95;;;;;;;;;;5114611;27;20497;-82
2022/02/12 12:34:35;;;;;;;15.02;8.55;;;;;;;;;;5114239;28;20032;-82
2022/02/12 12:37:04;;;;;;;11.93;7.47;;;;;;;;;;5112782;28;20024;-83
2022/02/12 12:39:35;;;;;;;16.10;8.07;;;;;;;;;;5112574;28;20111;-83
2022/02/12 12:42:02;;;;;;;20.63;11.60;;;;;;;;;;5117436;28;20026;-83
2022/02/12 12:44:39;;;;;;;17.80;8.23;;;;;;;;;;5055725;28;20396;-83
2022/02/12 12:50:07;;;;;;;13.98;8.27;;;;;;;;;;5112359;27;20401;-84
2022/02/12 12:55:20;;;;;;;13.00;5.90;;;;;;;;;;5114954;27;20469;-82
2022/02/12 12:57:46;;;;;;;13.40;7.85;;;;;;;;;;5111531;28;20036;-84
2022/02/12 13:00:14;;;;;;;11.18;6.68;;;;;;;;;;5111943;28;20119;-84
2022/02/12 13:02:50;;;;;;;15.75;7.90;;;;;;;;;;5127943;28;20556;-84
2022/02/12 13:05:26;;;;;;;10.52;5.63;;;;;;;;;;5111685;27;20506;-83
2022/02/12 13:17:19;;;;;;;12.68;7.22;;;;;;;;;;5132701;27;20388;-81
2022/02/12 13:21:31;;;;;;;15.25;8.95;;;;;;;;;;5097808;27;1663119;-83
2022/02/12 13:24:55;;;;;;;10.63;6.15;;;;;;;;;;5111600;27;20397;-82
2022/02/12 13:27:23;;;;;;;10.23;5.10;;;;;;;;;;5111316;28;20528;-81
2022/02/12 13:29:50;;;;;;;11.23;5.95;;;;;;;;;;5110547;28;20395;-84
2022/02/12 13:32:16;;;;;;;13.45;7.07;;;;;;;;;;5111416;28;20020;-80
2022/02/12 13:34:49;;;;;;;20.17;8.82;;;;;;;;;;5111071;28;20475;-82
2022/02/12 13:38:11;;;;;;;14.73;6.55;;;;;;;;;;5153290;27;20520;-82
2022/02/12 13:40:38;;;;;;;18.08;10.38;;;;;;;;;;5152717;27;20543;-83
2022/02/12 13:43:06;;;;;;;18.48;9.07;;;;;;;;;;5152649;27;20026;-82
2022/02/12 13:48:39;;;;;;;10.95;5.90;;;;;;;;;;5131601;27;20118;-83
2022/02/12 13:51:06;;;;;;;11.52;6.70;;;;;;;;;;5113553;28;20106;-80
2022/02/12 13:54:34;;;;;;;18.35;8.30;;;;;;;;;;5111412;27;20400;-83
2022/02/12 13:57:02;;;;;;;10.15;5.82;;;;;;;;;;5111747;28;20024;-83
2022/02/12 14:03:46;;;;;;;16.52;9.20;;;;;;;;;;5112827;27;20397;-81
2022/02/12 14:06:13;;;;;;;21.27;11.02;;;;;;;;;;5110815;28;20062;-82
2022/02/12 14:08:39;;;;;;;19.52;10.05;;;;;;;;;;5111543;28;20438;-82
2022/02/12 14:11:06;;;;;;;13.45;7.57;;;;;;;;;;5111410;28;20046;-81
2022/02/12 14:14:18;;;;;;;12.65;7.68;;;;;;;;;;5112070;27;20931;-80
2022/02/12 14:16:45;;;;;;;11.48;6.05;;;;;;;;;;5110604;28;20396;-81
2022/02/12 14:19:14;;;;;;;13.57;8.18;;;;;;;;;;5111671;28;20024;-81
2022/02/12 14:21:40;;;;;;;15.57;8.98;;;;;;;;;;5111668;28;20476;-81
2022/02/12 14:27:54;;;;;;;14.63;7.60;;;;;;;;;;5111641;27;20389;-85
2022/02/12 14:31:24;;;;;;;12.18;7.97;;;;;;;;;;5112267;27;20520;-81
2022/02/12 14:33:50;;;;;;;14.32;8.10;;;;;;;;;;5111627;28;20448;-81
2022/02/12 14:37:30;;;;;;;9.65;5.28;;;;;;;;;;5111266;27;20393;-82
2022/02/12 14:42:44;;;;;;;11.93;5.68;;;;;;;;;;5111699;27;20381;-81
2022/02/12 14:45:10;;;;;;;8.02;4.22;;;;;;;;;;5110927;28;20073;-81
2022/02/12 14:47:36;;;;;;;13.57;6.28;;;;;;;;;;5111490;28;20024;-82
2022/02/12 14:50:07;;;;;;;13.00;7.10;;;;;;;;;;5111026;28;20047;-82
2022/02/12 14:53:48;;;;;;;13.95;8.13;;;;;;;;;;5111496;27;20397;-79
2022/02/12 14:56:14;;;;;;;14.30;7.18;;;;;;;;;;5111294;28;20048;-80
2022/02/12 14:59:34;;;;;;;12.00;7.32;;;;;;;;;;5111538;27;20438;-84
2022/02/12 15:02:00;;;;;;;14.88;8.40;;;;;;;;;;5111825;28;20110;-85
2022/02/12 15:04:26;;;;;;;13.75;7.70;;;;;;;;;;5111172;28;20023;-84
2022/02/12 15:06:53;;;;;;;17.80;10.85;;;;;;;;;;5111401;28;20514;-84
2022/02/12 15:09:57;;;;;;;13.25;6.93;;;;;;;;;;5131946;27;20315;-81
2022/02/12 15:12:23;;;;;;;23.60;11.73;;;;;;;;;;5109688;28;20024;-80
2022/02/12 15:14:51;;;;;;;13.30;7.45;;;;;;;;;;5111423;28;20032;-82
2022/02/12 15:18:08;;;;;;;12.93;7.07;;;;;;;;;;5112119;27;20392;-83
2022/02/12 15:20:34;;;;;;;13.43;6.95;;;;;;;;;;5111692;28;20055;-84
2022/02/12 15:23:00;;;;;;;15.65;8.32;;;;;;;;;;5111355;28;20024;-82
2022/02/12 15:26:35;;;;;;;20.55;11.20;;;;;;;;;;5131812;27;20312;-85
2022/02/12 15:29:02;;;;;;;14.25;8.75;;;;;;;;;;5111532;28;20520;-83
2022/02/12 15:31:28;;;;;;;16.13;10.00;;;;;;;;;;5111528;28;20024;-83
2022/02/12 15:33:54;;;;;;;19.27;10.40;;;;;;;;;;5112835;28;20020;-82
2022/02/12 15:36:20;;;;;;;15.00;8.30;;;;;;;;;;5113473;28;20055;-82
2022/02/12 15:38:47;;;;;;;24.08;10.18;;;;;;;;;;5111370;28;20051;-81
2022/02/12 15:41:13;;;;;;;18.25;10.57;;;;;;;;;;5110911;28;20031;-84
2022/02/12 15:43:40;;;;;;;23.65;12.45;;;;;;;;;;5111262;28;20472;-82